DLH35M LPPT-EDDF
Flight info
| Callsign | DLH35M |
|---|---|
| Flight time | 2h 32m |
| Altitude | 36000 |
| Route | IXIDA DCT TOSDI DCT ZMR DCT NUBLO DCT RONSI DCT DELOG DCT PEXOD DCT DIDIG DCT TIRAV DCT ERJAZ DCT PIWIZ DCT TSU UN858 OQQAL DCT RANUX/N0450F370 DCT VALEK DCT LIPNI DCT LIMGO/N0443F350 Z111 TUTOV/N0385F230 Z111 RAMOB IMCOM1A |
| Aircraft | A321/M-SDE3FGHIRWY/LB1 |
Departure
| Time | 2026-05-07 11:32 |
|---|---|
| Airport | Lisbon Humberto Delgado Airport (LPPT) |
Arrival
| Time | 2026-05-07 14:05 |
|---|---|
| Airport | Frankfurt Main Airport (EDDF) |
| Time | Latitude | Longitude | Altitude | Speed | Heading |
|---|---|---|---|---|---|
| 2026-05-07 10:42 | 38.76529 | -9.13384 | 353 ft | 0 kts | 73° |
| 2026-05-07 11:22 | 38.76528 | -9.13389 | 348 ft | 3 kts | 72° |
| 2026-05-07 11:22 | 38.76520 | -9.13414 | 346 ft | 3 kts | 52° |
| 2026-05-07 11:22 | 38.76505 | -9.13431 | 353 ft | 3 kts | 19° |
| 2026-05-07 11:22 | 38.76489 | -9.13434 | 346 ft | 1 kts | 344° |
| 2026-05-07 11:23 | 38.76488 | -9.13434 | 346 ft | 0 kts | 344° |
| 2026-05-07 11:27 | 38.76489 | -9.13434 | 345 ft | 0 kts | 344° |
| 2026-05-07 11:28 | 38.76497 | -9.13437 | 345 ft | 3 kts | 344° |
| 2026-05-07 11:28 | 38.76525 | -9.13447 | 345 ft | 6 kts | 344° |
| 2026-05-07 11:28 | 38.76571 | -9.13464 | 349 ft | 8 kts | 344° |
| 2026-05-07 11:28 | 38.76627 | -9.13487 | 348 ft | 9 kts | 333° |
| 2026-05-07 11:29 | 38.76642 | -9.13564 | 352 ft | 10 kts | 258° |
| 2026-05-07 11:29 | 38.76627 | -9.13655 | 352 ft | 11 kts | 258° |
| 2026-05-07 11:29 | 38.76610 | -9.13754 | 350 ft | 12 kts | 258° |
| 2026-05-07 11:29 | 38.76593 | -9.13861 | 348 ft | 13 kts | 258° |
| 2026-05-07 11:30 | 38.76573 | -9.13976 | 348 ft | 13 kts | 253° |
| 2026-05-07 11:30 | 38.76520 | -9.14068 | 347 ft | 13 kts | 229° |
| 2026-05-07 11:30 | 38.76500 | -9.14183 | 351 ft | 16 kts | 284° |
| 2026-05-07 11:30 | 38.76545 | -9.14327 | 332 ft | 13 kts | 293° |
| 2026-05-07 11:31 | 38.76591 | -9.14404 | 335 ft | 10 kts | 338° |
| 2026-05-07 11:31 | 38.76641 | -9.14389 | 333 ft | 8 kts | 22° |
| 2026-05-07 11:31 | 38.76814 | -9.14298 | 344 ft | 61 kts | 22° |
| 2026-05-07 11:31 | 38.77424 | -9.13972 | 366 ft | 127 kts | 22° |
| 2026-05-07 11:32 | 38.79579 | -9.12817 | 1101 ft | 180 kts | 21° |
| 2026-05-07 11:32 | 38.80724 | -9.12208 | 1875 ft | 176 kts | 18° |
| 2026-05-07 11:32 | 38.81825 | -9.11558 | 2536 ft | 175 kts | 29° |
| 2026-05-07 11:33 | 38.82848 | -9.10721 | 3188 ft | 173 kts | 28° |
| 2026-05-07 11:33 | 38.83871 | -9.09911 | 3830 ft | 174 kts | 35° |
| 2026-05-07 11:33 | 38.84790 | -9.08799 | 4198 ft | 191 kts | 45° |
| 2026-05-07 11:33 | 38.85794 | -9.07535 | 4433 ft | 213 kts | 44° |
| 2026-05-07 11:34 | 38.86908 | -9.06145 | 4619 ft | 235 kts | 45° |
| 2026-05-07 11:34 | 38.88135 | -9.04612 | 4749 ft | 260 kts | 45° |
| 2026-05-07 11:34 | 38.89472 | -9.02941 | 5223 ft | 273 kts | 45° |
| 2026-05-07 11:34 | 38.90850 | -9.01221 | 5916 ft | 278 kts | 45° |
| 2026-05-07 11:35 | 38.92243 | -8.99487 | 6613 ft | 282 kts | 46° |
| 2026-05-07 11:35 | 38.93662 | -8.97722 | 7295 ft | 285 kts | 45° |
| 2026-05-07 11:35 | 38.95090 | -8.95939 | 7986 ft | 288 kts | 45° |
| 2026-05-07 11:35 | 38.96531 | -8.94133 | 8675 ft | 291 kts | 45° |
| 2026-05-07 11:36 | 38.97987 | -8.92304 | 9362 ft | 294 kts | 45° |
| 2026-05-07 11:36 | 38.99459 | -8.90454 | 10015 ft | 298 kts | 45° |
| 2026-05-07 11:36 | 39.00978 | -8.88543 | 10265 ft | 317 kts | 45° |
| 2026-05-07 11:36 | 39.02630 | -8.86466 | 10395 ft | 338 kts | 45° |
| 2026-05-07 11:37 | 39.04335 | -8.84322 | 10625 ft | 353 kts | 45° |
| 2026-05-07 11:37 | 39.06112 | -8.82090 | 11121 ft | 359 kts | 44° |
| 2026-05-07 11:37 | 39.07927 | -8.79810 | 11713 ft | 362 kts | 44° |
| 2026-05-07 11:37 | 39.09743 | -8.77524 | 12303 ft | 366 kts | 44° |
| 2026-05-07 11:38 | 39.11564 | -8.75233 | 12894 ft | 368 kts | 44° |
| 2026-05-07 11:38 | 39.13396 | -8.72925 | 13490 ft | 371 kts | 43° |
| 2026-05-07 11:38 | 39.15250 | -8.70582 | 14041 ft | 373 kts | 44° |
| 2026-05-07 11:38 | 39.17108 | -8.68235 | 14579 ft | 375 kts | 43° |
| 2026-05-07 11:39 | 39.18977 | -8.65869 | 15125 ft | 378 kts | 43° |
| 2026-05-07 11:39 | 39.20857 | -8.63488 | 15646 ft | 380 kts | 43° |
| 2026-05-07 11:39 | 39.22748 | -8.61092 | 16176 ft | 382 kts | 43° |
| 2026-05-07 11:39 | 39.24652 | -8.58678 | 16693 ft | 385 kts | 43° |
| 2026-05-07 11:40 | 39.26563 | -8.56252 | 17214 ft | 388 kts | 43° |
| 2026-05-07 11:40 | 39.28492 | -8.53804 | 17730 ft | 390 kts | 43° |
| 2026-05-07 11:40 | 39.30437 | -8.51332 | 18223 ft | 393 kts | 43° |
| 2026-05-07 11:40 | 39.32386 | -8.48855 | 18641 ft | 395 kts | 42° |
| 2026-05-07 11:41 | 39.34352 | -8.46355 | 19057 ft | 398 kts | 42° |
| 2026-05-07 11:41 | 39.36330 | -8.43839 | 19465 ft | 400 kts | 41° |
| 2026-05-07 11:41 | 39.38318 | -8.41304 | 19878 ft | 403 kts | 41° |
| 2026-05-07 11:41 | 39.40319 | -8.38753 | 20295 ft | 405 kts | 41° |
| 2026-05-07 11:42 | 39.42332 | -8.36186 | 20718 ft | 408 kts | 41° |
| 2026-05-07 11:42 | 39.44356 | -8.33602 | 21108 ft | 410 kts | 41° |
| 2026-05-07 11:42 | 39.46388 | -8.31002 | 21525 ft | 412 kts | 40° |
| 2026-05-07 11:42 | 39.48429 | -8.28386 | 21920 ft | 414 kts | 40° |
| 2026-05-07 11:43 | 39.50481 | -8.25754 | 22309 ft | 416 kts | 40° |
| 2026-05-07 11:43 | 39.52544 | -8.23107 | 22723 ft | 418 kts | 40° |
| 2026-05-07 11:43 | 39.54618 | -8.20447 | 23122 ft | 420 kts | 40° |
| 2026-05-07 11:43 | 39.56698 | -8.17781 | 23502 ft | 423 kts | 40° |
| 2026-05-07 11:44 | 39.58796 | -8.15085 | 23807 ft | 425 kts | 39° |
| 2026-05-07 11:44 | 39.60925 | -8.12339 | 24133 ft | 427 kts | 39° |
| 2026-05-07 11:44 | 39.63033 | -8.09619 | 24449 ft | 429 kts | 39° |
| 2026-05-07 11:44 | 39.65156 | -8.06878 | 24762 ft | 431 kts | 39° |
| 2026-05-07 11:45 | 39.67289 | -8.04125 | 25066 ft | 434 kts | 39° |
| 2026-05-07 11:45 | 39.69433 | -8.01357 | 25362 ft | 436 kts | 39° |
| 2026-05-07 11:45 | 39.71586 | -7.98574 | 25673 ft | 438 kts | 39° |
| 2026-05-07 11:45 | 39.73749 | -7.95775 | 25967 ft | 440 kts | 39° |
| 2026-05-07 11:46 | 39.75922 | -7.92961 | 26270 ft | 442 kts | 39° |
| 2026-05-07 11:46 | 39.78101 | -7.90135 | 26592 ft | 443 kts | 39° |
| 2026-05-07 11:46 | 39.80287 | -7.87294 | 26866 ft | 445 kts | 38° |
| 2026-05-07 11:46 | 39.82479 | -7.84438 | 27145 ft | 447 kts | 39° |
| 2026-05-07 11:47 | 39.84679 | -7.81571 | 27435 ft | 449 kts | 39° |
| 2026-05-07 11:47 | 39.86880 | -7.78703 | 27697 ft | 451 kts | 38° |
| 2026-05-07 11:47 | 39.89114 | -7.75800 | 27991 ft | 453 kts | 38° |
| 2026-05-07 11:47 | 39.91345 | -7.72899 | 28264 ft | 454 kts | 38° |
| 2026-05-07 11:48 | 39.93585 | -7.69981 | 28520 ft | 456 kts | 38° |
| 2026-05-07 11:48 | 39.95833 | -7.67047 | 28775 ft | 458 kts | 38° |
| 2026-05-07 11:48 | 39.98089 | -7.64097 | 29029 ft | 460 kts | 38° |
| 2026-05-07 11:48 | 40.00351 | -7.61132 | 29264 ft | 462 kts | 38° |
| 2026-05-07 11:49 | 40.02617 | -7.58159 | 29592 ft | 462 kts | 38° |
| 2026-05-07 11:49 | 40.04887 | -7.55185 | 29850 ft | 463 kts | 38° |
| 2026-05-07 11:49 | 40.07160 | -7.52206 | 30092 ft | 463 kts | 38° |
| 2026-05-07 11:49 | 40.09428 | -7.49226 | 30339 ft | 462 kts | 38° |
| 2026-05-07 11:50 | 40.11687 | -7.46252 | 30572 ft | 462 kts | 38° |
| 2026-05-07 11:50 | 40.13956 | -7.43263 | 30818 ft | 462 kts | 38° |
| 2026-05-07 11:50 | 40.16215 | -7.40284 | 31051 ft | 462 kts | 37° |
| 2026-05-07 11:50 | 40.18478 | -7.37297 | 31286 ft | 462 kts | 37° |
| 2026-05-07 11:51 | 40.20739 | -7.34307 | 31520 ft | 462 kts | 37° |
| 2026-05-07 11:51 | 40.22993 | -7.31323 | 31722 ft | 463 kts | 37° |
| 2026-05-07 11:51 | 40.25257 | -7.28323 | 31972 ft | 462 kts | 38° |
| 2026-05-07 11:51 | 40.27516 | -7.25324 | 32249 ft | 462 kts | 38° |
| 2026-05-07 11:52 | 40.29771 | -7.22327 | 32508 ft | 461 kts | 38° |
| 2026-05-07 11:52 | 40.32018 | -7.19345 | 32782 ft | 461 kts | 39° |
| 2026-05-07 11:52 | 40.34273 | -7.16355 | 33035 ft | 460 kts | 39° |
| 2026-05-07 11:52 | 40.36525 | -7.13362 | 33236 ft | 461 kts | 39° |
| 2026-05-07 11:53 | 40.38800 | -7.10335 | 33455 ft | 461 kts | 39° |
| 2026-05-07 11:53 | 40.41054 | -7.07329 | 33685 ft | 461 kts | 39° |
| 2026-05-07 11:53 | 40.43301 | -7.04329 | 33911 ft | 461 kts | 39° |
| 2026-05-07 11:53 | 40.45544 | -7.01325 | 34105 ft | 461 kts | 39° |
| 2026-05-07 11:54 | 40.47780 | -6.98329 | 34294 ft | 461 kts | 39° |
| 2026-05-07 11:54 | 40.50029 | -6.95319 | 34467 ft | 461 kts | 39° |
| 2026-05-07 11:54 | 40.52273 | -6.92318 | 34639 ft | 461 kts | 39° |
| 2026-05-07 11:54 | 40.54524 | -6.89300 | 34809 ft | 462 kts | 39° |
| 2026-05-07 11:55 | 40.56775 | -6.86276 | 34969 ft | 462 kts | 39° |
| 2026-05-07 11:55 | 40.59020 | -6.83257 | 35163 ft | 463 kts | 40° |
| 2026-05-07 11:55 | 40.61274 | -6.80225 | 35307 ft | 463 kts | 40° |
| 2026-05-07 11:55 | 40.63528 | -6.77188 | 35465 ft | 463 kts | 40° |
| 2026-05-07 11:56 | 40.65777 | -6.74157 | 35627 ft | 464 kts | 40° |
| 2026-05-07 11:56 | 40.68034 | -6.71115 | 35803 ft | 464 kts | 40° |
| 2026-05-07 11:56 | 40.70284 | -6.68076 | 35881 ft | 464 kts | 41° |
| 2026-05-07 11:57 | 40.74791 | -6.61970 | 35890 ft | 463 kts | 41° |
| 2026-05-07 11:57 | 40.79283 | -6.55875 | 35890 ft | 463 kts | 41° |
| 2026-05-07 11:58 | 40.83775 | -6.49774 | 35894 ft | 463 kts | 41° |
| 2026-05-07 11:58 | 40.88268 | -6.43658 | 35892 ft | 463 kts | 42° |
| 2026-05-07 11:59 | 40.92011 | -6.38552 | 35897 ft | 462 kts | 42° |
| 2026-05-07 11:59 | 40.96475 | -6.32447 | 35918 ft | 463 kts | 42° |
| 2026-05-07 12:00 | 41.01001 | -6.26368 | 35921 ft | 461 kts | 39° |
| 2026-05-07 12:00 | 41.05745 | -6.20672 | 35923 ft | 460 kts | 37° |
| 2026-05-07 12:01 | 41.10575 | -6.15125 | 35921 ft | 460 kts | 37° |
| 2026-05-07 12:01 | 41.15375 | -6.09501 | 35922 ft | 460 kts | 38° |
| 2026-05-07 12:02 | 41.20116 | -6.03792 | 35944 ft | 461 kts | 39° |
| 2026-05-07 12:02 | 41.24857 | -5.98060 | 35941 ft | 461 kts | 39° |
| 2026-05-07 12:03 | 41.29613 | -5.92336 | 35932 ft | 462 kts | 39° |
| 2026-05-07 12:03 | 41.34382 | -5.86591 | 35930 ft | 462 kts | 39° |
| 2026-05-07 12:04 | 41.39139 | -5.80841 | 35922 ft | 462 kts | 39° |
| 2026-05-07 12:04 | 41.43891 | -5.75080 | 35929 ft | 462 kts | 39° |
| 2026-05-07 12:05 | 41.48641 | -5.69303 | 35925 ft | 463 kts | 40° |
| 2026-05-07 12:05 | 41.53647 | -5.63934 | 35908 ft | 460 kts | 28° |
| 2026-05-07 12:06 | 41.59428 | -5.60385 | 35909 ft | 458 kts | 20° |
| 2026-05-07 12:06 | 41.65345 | -5.57061 | 35922 ft | 459 kts | 21° |
| 2026-05-07 12:07 | 41.71225 | -5.53719 | 35919 ft | 460 kts | 21° |
| 2026-05-07 12:07 | 41.77124 | -5.50373 | 35920 ft | 460 kts | 20° |
| 2026-05-07 12:08 | 41.83018 | -5.47035 | 35928 ft | 460 kts | 20° |
| 2026-05-07 12:08 | 41.88916 | -5.43692 | 35933 ft | 461 kts | 21° |
| 2026-05-07 12:09 | 41.94827 | -5.40324 | 35933 ft | 461 kts | 21° |
| 2026-05-07 12:09 | 42.00732 | -5.36951 | 35932 ft | 461 kts | 21° |
| 2026-05-07 12:10 | 42.06640 | -5.33573 | 35928 ft | 462 kts | 21° |
| 2026-05-07 12:10 | 42.12561 | -5.30182 | 35922 ft | 464 kts | 21° |
| 2026-05-07 12:11 | 42.18392 | -5.26838 | 35921 ft | 465 kts | 21° |
| 2026-05-07 12:11 | 42.24348 | -5.23406 | 35924 ft | 466 kts | 21° |
| 2026-05-07 12:12 | 42.30324 | -5.19965 | 35932 ft | 467 kts | 21° |
| 2026-05-07 12:12 | 42.36297 | -5.16520 | 35932 ft | 467 kts | 21° |
| 2026-05-07 12:13 | 42.42273 | -5.13061 | 35935 ft | 467 kts | 21° |
| 2026-05-07 12:13 | 42.48253 | -5.09599 | 35936 ft | 468 kts | 21° |
| 2026-05-07 12:14 | 42.54280 | -5.06094 | 35940 ft | 468 kts | 22° |
| 2026-05-07 12:14 | 42.60215 | -5.02630 | 35942 ft | 468 kts | 22° |
| 2026-05-07 12:15 | 42.66230 | -4.99113 | 35938 ft | 468 kts | 22° |
| 2026-05-07 12:15 | 42.72204 | -4.95619 | 35938 ft | 468 kts | 22° |
| 2026-05-07 12:16 | 42.78189 | -4.92124 | 35908 ft | 469 kts | 22° |
| 2026-05-07 12:16 | 42.84199 | -4.88595 | 35903 ft | 470 kts | 22° |
| 2026-05-07 12:17 | 42.90212 | -4.85049 | 35901 ft | 471 kts | 22° |
| 2026-05-07 12:17 | 42.96235 | -4.81490 | 35909 ft | 472 kts | 22° |
| 2026-05-07 12:18 | 43.02278 | -4.77918 | 35916 ft | 473 kts | 22° |
| 2026-05-07 12:18 | 43.08319 | -4.74346 | 35919 ft | 473 kts | 22° |
| 2026-05-07 12:19 | 43.14360 | -4.70753 | 35932 ft | 474 kts | 22° |
| 2026-05-07 12:19 | 43.20407 | -4.67155 | 35937 ft | 474 kts | 22° |
| 2026-05-07 12:20 | 43.26464 | -4.63542 | 35934 ft | 474 kts | 22° |
| 2026-05-07 12:20 | 43.32507 | -4.59935 | 35935 ft | 474 kts | 22° |
| 2026-05-07 12:21 | 43.38567 | -4.56307 | 35925 ft | 475 kts | 23° |
| 2026-05-07 12:21 | 43.44629 | -4.52659 | 35918 ft | 476 kts | 23° |
| 2026-05-07 12:22 | 43.50706 | -4.49009 | 35925 ft | 477 kts | 23° |
| 2026-05-07 12:22 | 43.56830 | -4.45321 | 35942 ft | 478 kts | 23° |
| 2026-05-07 12:23 | 43.62886 | -4.41661 | 35941 ft | 478 kts | 23° |
| 2026-05-07 12:23 | 43.69019 | -4.37954 | 35948 ft | 478 kts | 23° |
| 2026-05-07 12:24 | 43.75110 | -4.34253 | 35960 ft | 478 kts | 23° |
| 2026-05-07 12:24 | 43.81209 | -4.30534 | 35958 ft | 478 kts | 22° |
| 2026-05-07 12:25 | 43.87301 | -4.26822 | 35963 ft | 478 kts | 23° |
| 2026-05-07 12:25 | 43.93388 | -4.23101 | 35967 ft | 478 kts | 23° |
| 2026-05-07 12:26 | 43.99470 | -4.19371 | 35977 ft | 478 kts | 23° |
| 2026-05-07 12:26 | 44.05553 | -4.15648 | 35974 ft | 478 kts | 23° |
| 2026-05-07 12:27 | 44.11643 | -4.11913 | 35976 ft | 478 kts | 23° |
| 2026-05-07 12:27 | 44.17713 | -4.08162 | 35994 ft | 477 kts | 23° |
| 2026-05-07 12:28 | 44.23778 | -4.04410 | 35991 ft | 477 kts | 23° |
| 2026-05-07 12:28 | 44.29837 | -4.00656 | 35987 ft | 477 kts | 23° |
| 2026-05-07 12:29 | 44.35622 | -3.96154 | 35986 ft | 476 kts | 34° |
| 2026-05-07 12:29 | 44.41069 | -3.90887 | 35990 ft | 476 kts | 34° |
| 2026-05-07 12:30 | 44.46520 | -3.85627 | 35990 ft | 476 kts | 34° |
| 2026-05-07 12:30 | 44.52008 | -3.80328 | 35984 ft | 476 kts | 34° |
| 2026-05-07 12:31 | 44.57435 | -3.75064 | 35988 ft | 477 kts | 34° |
| 2026-05-07 12:31 | 44.62932 | -3.69720 | 35990 ft | 478 kts | 34° |
| 2026-05-07 12:32 | 44.67465 | -3.65310 | 35997 ft | 478 kts | 34° |
| 2026-05-07 12:32 | 44.72931 | -3.59974 | 35997 ft | 478 kts | 35° |
| 2026-05-07 12:33 | 44.81108 | -3.51968 | 36002 ft | 478 kts | 35° |
| 2026-05-07 12:33 | 44.86572 | -3.46605 | 36003 ft | 478 kts | 35° |
| 2026-05-07 12:34 | 44.92024 | -3.41237 | 35989 ft | 478 kts | 35° |
| 2026-05-07 12:34 | 44.97480 | -3.35851 | 36005 ft | 479 kts | 35° |
| 2026-05-07 12:35 | 45.02939 | -3.30452 | 36011 ft | 479 kts | 35° |
| 2026-05-07 12:35 | 45.08415 | -3.25046 | 36013 ft | 479 kts | 35° |
| 2026-05-07 12:36 | 45.13876 | -3.19627 | 36015 ft | 480 kts | 35° |
| 2026-05-07 12:36 | 45.19362 | -3.14151 | 36028 ft | 479 kts | 35° |
| 2026-05-07 12:37 | 45.24778 | -3.08739 | 36024 ft | 479 kts | 35° |
| 2026-05-07 12:37 | 45.30255 | -3.03259 | 36016 ft | 479 kts | 35° |
| 2026-05-07 12:38 | 45.35682 | -2.97770 | 36032 ft | 479 kts | 36° |
| 2026-05-07 12:38 | 45.41064 | -2.92191 | 36031 ft | 479 kts | 36° |
| 2026-05-07 12:39 | 45.46449 | -2.86592 | 36030 ft | 479 kts | 36° |
| 2026-05-07 12:39 | 45.51832 | -2.81013 | 36032 ft | 479 kts | 36° |
| 2026-05-07 12:40 | 45.57217 | -2.75438 | 36041 ft | 478 kts | 36° |
| 2026-05-07 12:40 | 45.62590 | -2.69850 | 36028 ft | 478 kts | 36° |
| 2026-05-07 12:41 | 45.67965 | -2.64238 | 36035 ft | 478 kts | 36° |
| 2026-05-07 12:41 | 45.73330 | -2.58623 | 36036 ft | 478 kts | 36° |
| 2026-05-07 12:42 | 45.78693 | -2.53006 | 36043 ft | 478 kts | 36° |
| 2026-05-07 12:42 | 45.84047 | -2.47379 | 36042 ft | 477 kts | 36° |
| 2026-05-07 12:43 | 45.89396 | -2.41753 | 36041 ft | 477 kts | 36° |
| 2026-05-07 12:43 | 45.94743 | -2.36099 | 36042 ft | 477 kts | 36° |
| 2026-05-07 12:44 | 46.00075 | -2.30440 | 36043 ft | 477 kts | 36° |
| 2026-05-07 12:44 | 46.05368 | -2.24604 | 36041 ft | 476 kts | 43° |
| 2026-05-07 12:45 | 46.09905 | -2.17735 | 36041 ft | 476 kts | 47° |
| 2026-05-07 12:45 | 46.14435 | -2.10691 | 36041 ft | 476 kts | 47° |
| 2026-05-07 12:46 | 46.18934 | -2.03687 | 36048 ft | 476 kts | 47° |
| 2026-05-07 12:46 | 46.23430 | -1.96679 | 36038 ft | 475 kts | 47° |
| 2026-05-07 12:47 | 46.27916 | -1.89665 | 36040 ft | 475 kts | 47° |
| 2026-05-07 12:47 | 46.32393 | -1.82635 | 36041 ft | 475 kts | 47° |
| 2026-05-07 12:48 | 46.36875 | -1.75585 | 36045 ft | 475 kts | 47° |
| 2026-05-07 12:48 | 46.41346 | -1.68543 | 36042 ft | 475 kts | 47° |
| 2026-05-07 12:49 | 46.45806 | -1.61490 | 36045 ft | 475 kts | 47° |
| 2026-05-07 12:49 | 46.50269 | -1.54415 | 36040 ft | 475 kts | 47° |
| 2026-05-07 12:50 | 46.54724 | -1.47336 | 36048 ft | 475 kts | 47° |
| 2026-05-07 12:50 | 46.59169 | -1.40252 | 36058 ft | 474 kts | 47° |
| 2026-05-07 12:51 | 46.63615 | -1.33140 | 36056 ft | 474 kts | 48° |
| 2026-05-07 12:51 | 46.68016 | -1.26030 | 36058 ft | 474 kts | 48° |
| 2026-05-07 12:52 | 46.72463 | -1.18829 | 36043 ft | 473 kts | 48° |
| 2026-05-07 12:52 | 46.76835 | -1.11741 | 36039 ft | 473 kts | 48° |
| 2026-05-07 12:53 | 46.81263 | -1.04544 | 36038 ft | 473 kts | 48° |
| 2026-05-07 12:53 | 46.85659 | -0.97392 | 36034 ft | 473 kts | 48° |
| 2026-05-07 12:54 | 46.90048 | -0.90223 | 36031 ft | 473 kts | 48° |
| 2026-05-07 12:54 | 46.94415 | -0.83069 | 36030 ft | 473 kts | 48° |
| 2026-05-07 12:55 | 46.98812 | -0.75843 | 36032 ft | 473 kts | 48° |
| 2026-05-07 12:55 | 47.03191 | -0.68637 | 36032 ft | 473 kts | 48° |
| 2026-05-07 12:56 | 47.07560 | -0.61429 | 36033 ft | 473 kts | 48° |
| 2026-05-07 12:56 | 47.11920 | -0.54208 | 36033 ft | 473 kts | 48° |
| 2026-05-07 12:57 | 47.16277 | -0.46970 | 36039 ft | 473 kts | 48° |
| 2026-05-07 12:57 | 47.20635 | -0.39704 | 36048 ft | 473 kts | 48° |
| 2026-05-07 12:58 | 47.24999 | -0.32470 | 36047 ft | 473 kts | 46° |
| 2026-05-07 12:58 | 47.29637 | -0.25623 | 36047 ft | 472 kts | 43° |
| 2026-05-07 12:59 | 47.34430 | -0.18986 | 36049 ft | 472 kts | 43° |
| 2026-05-07 12:59 | 47.39180 | -0.12293 | 36061 ft | 472 kts | 44° |
| 2026-05-07 13:00 | 47.43862 | -0.05490 | 36058 ft | 473 kts | 44° |
| 2026-05-07 13:00 | 47.48526 | 0.01354 | 36047 ft | 472 kts | 44° |
| 2026-05-07 13:01 | 47.53227 | 0.08235 | 36047 ft | 471 kts | 44° |
| 2026-05-07 13:01 | 47.57863 | 0.15007 | 36050 ft | 471 kts | 44° |
| 2026-05-07 13:02 | 47.62562 | 0.21874 | 36058 ft | 471 kts | 44° |
| 2026-05-07 13:02 | 47.67216 | 0.28718 | 36058 ft | 471 kts | 44° |
| 2026-05-07 13:03 | 47.71863 | 0.35576 | 36062 ft | 471 kts | 44° |
| 2026-05-07 13:03 | 47.76516 | 0.42452 | 36051 ft | 471 kts | 44° |
| 2026-05-07 13:04 | 47.81157 | 0.49326 | 36064 ft | 471 kts | 44° |
| 2026-05-07 13:04 | 47.85791 | 0.56208 | 36072 ft | 471 kts | 44° |
| 2026-05-07 13:05 | 47.90419 | 0.63118 | 36071 ft | 470 kts | 44° |
| 2026-05-07 13:05 | 47.94257 | 0.68844 | 36065 ft | 470 kts | 44° |
| 2026-05-07 13:06 | 47.98906 | 0.75798 | 36064 ft | 470 kts | 44° |
| 2026-05-07 13:06 | 48.03494 | 0.82689 | 36072 ft | 470 kts | 44° |
| 2026-05-07 13:07 | 48.08135 | 0.89683 | 36070 ft | 471 kts | 44° |
| 2026-05-07 13:07 | 48.12740 | 0.96629 | 36068 ft | 470 kts | 44° |
| 2026-05-07 13:08 | 48.17333 | 1.03571 | 36072 ft | 470 kts | 44° |
| 2026-05-07 13:08 | 48.21886 | 1.10601 | 36069 ft | 470 kts | 50° |
| 2026-05-07 13:09 | 48.26023 | 1.18186 | 36078 ft | 470 kts | 50° |
| 2026-05-07 13:09 | 48.30160 | 1.25775 | 36075 ft | 469 kts | 50° |
| 2026-05-07 13:10 | 48.34284 | 1.33349 | 36066 ft | 468 kts | 50° |
| 2026-05-07 13:10 | 48.38402 | 1.40950 | 36068 ft | 468 kts | 50° |
| 2026-05-07 13:11 | 48.42508 | 1.48557 | 36071 ft | 468 kts | 50° |
| 2026-05-07 13:11 | 48.46597 | 1.56158 | 36078 ft | 467 kts | 50° |
| 2026-05-07 13:12 | 48.50685 | 1.63774 | 36076 ft | 467 kts | 50° |
| 2026-05-07 13:12 | 48.54774 | 1.71413 | 36071 ft | 467 kts | 50° |
| 2026-05-07 13:13 | 48.58851 | 1.79047 | 36070 ft | 467 kts | 50° |
| 2026-05-07 13:13 | 48.62930 | 1.86689 | 36073 ft | 468 kts | 50° |
| 2026-05-07 13:14 | 48.67013 | 1.94370 | 36077 ft | 468 kts | 51° |
| 2026-05-07 13:14 | 48.71074 | 2.02059 | 36080 ft | 467 kts | 51° |
| 2026-05-07 13:15 | 48.74825 | 2.10065 | 36074 ft | 467 kts | 63° |
| 2026-05-07 13:15 | 48.77037 | 2.19346 | 36072 ft | 467 kts | 75° |
| 2026-05-07 13:16 | 48.78732 | 2.28861 | 36073 ft | 467 kts | 75° |
| 2026-05-07 13:16 | 48.80439 | 2.38366 | 36072 ft | 467 kts | 75° |
| 2026-05-07 13:17 | 48.82139 | 2.47880 | 36077 ft | 468 kts | 75° |
| 2026-05-07 13:17 | 48.83832 | 2.57414 | 36079 ft | 467 kts | 75° |
| 2026-05-07 13:18 | 48.85510 | 2.66946 | 36073 ft | 468 kts | 75° |
| 2026-05-07 13:18 | 48.87180 | 2.76487 | 36079 ft | 468 kts | 75° |
| 2026-05-07 13:19 | 48.88855 | 2.86038 | 36084 ft | 468 kts | 75° |
| 2026-05-07 13:19 | 48.90519 | 2.95588 | 36084 ft | 468 kts | 75° |
| 2026-05-07 13:20 | 48.92043 | 3.04397 | 36085 ft | 468 kts | 75° |
| 2026-05-07 13:20 | 48.93689 | 3.13976 | 36083 ft | 468 kts | 75° |
| 2026-05-07 13:21 | 48.95324 | 3.23531 | 36082 ft | 468 kts | 76° |
| 2026-05-07 13:21 | 48.96954 | 3.33117 | 36082 ft | 468 kts | 76° |
| 2026-05-07 13:22 | 48.98574 | 3.42700 | 36088 ft | 468 kts | 76° |
| 2026-05-07 13:22 | 49.00185 | 3.52316 | 36089 ft | 468 kts | 76° |
| 2026-05-07 13:23 | 49.01783 | 3.61900 | 36090 ft | 468 kts | 76° |
| 2026-05-07 13:23 | 49.03393 | 3.71576 | 36098 ft | 468 kts | 76° |
| 2026-05-07 13:24 | 49.04983 | 3.81180 | 36090 ft | 467 kts | 76° |
| 2026-05-07 13:24 | 49.06558 | 3.90797 | 36084 ft | 467 kts | 76° |
| 2026-05-07 13:25 | 49.08117 | 4.00395 | 36085 ft | 467 kts | 76° |
| 2026-05-07 13:25 | 49.09680 | 4.10007 | 36077 ft | 467 kts | 76° |
| 2026-05-07 13:26 | 49.11239 | 4.19640 | 36073 ft | 467 kts | 76° |
| 2026-05-07 13:26 | 49.12789 | 4.29265 | 36079 ft | 467 kts | 76° |
| 2026-05-07 13:27 | 49.14589 | 4.38773 | 36081 ft | 466 kts | 67° |
| 2026-05-07 13:27 | 49.17098 | 4.47924 | 36076 ft | 466 kts | 67° |
| 2026-05-07 13:28 | 49.19583 | 4.57077 | 36083 ft | 466 kts | 67° |
| 2026-05-07 13:28 | 49.22049 | 4.66241 | 36089 ft | 466 kts | 67° |
| 2026-05-07 13:29 | 49.24513 | 4.75416 | 36086 ft | 466 kts | 67° |
| 2026-05-07 13:29 | 49.26975 | 4.84613 | 36081 ft | 466 kts | 68° |
| 2026-05-07 13:30 | 49.29421 | 4.93799 | 36081 ft | 466 kts | 67° |
| 2026-05-07 13:30 | 49.31867 | 5.02985 | 36074 ft | 466 kts | 67° |
| 2026-05-07 13:31 | 49.34318 | 5.12242 | 36080 ft | 466 kts | 68° |
| 2026-05-07 13:31 | 49.36745 | 5.21445 | 36075 ft | 466 kts | 68° |
| 2026-05-07 13:32 | 49.39167 | 5.30670 | 36074 ft | 465 kts | 68° |
| 2026-05-07 13:32 | 49.41575 | 5.39887 | 36085 ft | 465 kts | 68° |
| 2026-05-07 13:33 | 49.43972 | 5.49104 | 36083 ft | 464 kts | 68° |
| 2026-05-07 13:33 | 49.46361 | 5.58328 | 36080 ft | 464 kts | 68° |
| 2026-05-07 13:34 | 49.49924 | 5.72169 | 36081 ft | 464 kts | 68° |
| 2026-05-07 13:35 | 49.52282 | 5.81402 | 36074 ft | 464 kts | 69° |
| 2026-05-07 13:35 | 49.54552 | 5.90712 | 36078 ft | 463 kts | 69° |
| 2026-05-07 13:36 | 49.56811 | 5.99967 | 35610 ft | 461 kts | 68° |
| 2026-05-07 13:36 | 49.57946 | 6.04588 | 34975 ft | 460 kts | 68° |
| 2026-05-07 13:36 | 49.59079 | 6.09185 | 34380 ft | 459 kts | 68° |
| 2026-05-07 13:36 | 49.60211 | 6.13785 | 33746 ft | 458 kts | 68° |
| 2026-05-07 13:37 | 49.61338 | 6.18370 | 32990 ft | 457 kts | 68° |
| 2026-05-07 13:37 | 49.62462 | 6.22949 | 32233 ft | 457 kts | 68° |
| 2026-05-07 13:37 | 49.63584 | 6.27522 | 31671 ft | 453 kts | 68° |
| 2026-05-07 13:37 | 49.64668 | 6.32080 | 31144 ft | 449 kts | 69° |
| 2026-05-07 13:38 | 49.65687 | 6.36606 | 30637 ft | 444 kts | 70° |
| 2026-05-07 13:38 | 49.66663 | 6.41103 | 30122 ft | 440 kts | 71° |
| 2026-05-07 13:38 | 49.67621 | 6.45575 | 29446 ft | 438 kts | 71° |
| 2026-05-07 13:38 | 49.68575 | 6.50026 | 28641 ft | 437 kts | 71° |
| 2026-05-07 13:39 | 49.69227 | 6.53040 | 28122 ft | 437 kts | 71° |
| 2026-05-07 13:39 | 49.70196 | 6.57478 | 27427 ft | 434 kts | 70° |
| 2026-05-07 13:39 | 49.71158 | 6.61867 | 26876 ft | 429 kts | 71° |
| 2026-05-07 13:39 | 49.72106 | 6.66201 | 26326 ft | 425 kts | 71° |
| 2026-05-07 13:40 | 49.73045 | 6.70500 | 25806 ft | 419 kts | 71° |
| 2026-05-07 13:40 | 49.73968 | 6.74731 | 25339 ft | 414 kts | 71° |
| 2026-05-07 13:40 | 49.74881 | 6.78925 | 24862 ft | 409 kts | 71° |
| 2026-05-07 13:40 | 49.75776 | 6.83053 | 24414 ft | 403 kts | 71° |
| 2026-05-07 13:41 | 49.76661 | 6.87148 | 23964 ft | 399 kts | 71° |
| 2026-05-07 13:41 | 49.77533 | 6.91195 | 23542 ft | 394 kts | 71° |
| 2026-05-07 13:41 | 49.78391 | 6.95190 | 23085 ft | 388 kts | 71° |
| 2026-05-07 13:41 | 49.79235 | 6.99123 | 22661 ft | 381 kts | 71° |
| 2026-05-07 13:42 | 49.80059 | 7.02981 | 22266 ft | 375 kts | 71° |
| 2026-05-07 13:42 | 49.80871 | 7.06779 | 21864 ft | 368 kts | 71° |
| 2026-05-07 13:42 | 49.81671 | 7.10521 | 21453 ft | 363 kts | 71° |
| 2026-05-07 13:42 | 49.82460 | 7.14220 | 21058 ft | 362 kts | 71° |
| 2026-05-07 13:43 | 49.83247 | 7.17917 | 20634 ft | 359 kts | 71° |
| 2026-05-07 13:43 | 49.84026 | 7.21576 | 20215 ft | 357 kts | 71° |
| 2026-05-07 13:43 | 49.84800 | 7.25223 | 19870 ft | 355 kts | 71° |
| 2026-05-07 13:43 | 49.85567 | 7.28848 | 19315 ft | 352 kts | 71° |
| 2026-05-07 13:44 | 49.86325 | 7.32440 | 18860 ft | 350 kts | 71° |
| 2026-05-07 13:44 | 49.87081 | 7.36014 | 18403 ft | 348 kts | 71° |
| 2026-05-07 13:44 | 49.87839 | 7.39597 | 17905 ft | 346 kts | 71° |
| 2026-05-07 13:44 | 49.88587 | 7.43141 | 17423 ft | 343 kts | 71° |
| 2026-05-07 13:45 | 49.89323 | 7.46633 | 16950 ft | 340 kts | 71° |
| 2026-05-07 13:45 | 49.90054 | 7.50123 | 16462 ft | 338 kts | 71° |
| 2026-05-07 13:45 | 49.90775 | 7.53568 | 16011 ft | 335 kts | 71° |
| 2026-05-07 13:45 | 49.91492 | 7.57002 | 15557 ft | 333 kts | 71° |
| 2026-05-07 13:46 | 49.92201 | 7.60410 | 15087 ft | 331 kts | 71° |
| 2026-05-07 13:46 | 49.92903 | 7.63789 | 14644 ft | 328 kts | 71° |
| 2026-05-07 13:46 | 49.93598 | 7.67147 | 14202 ft | 326 kts | 71° |
| 2026-05-07 13:46 | 49.94294 | 7.70508 | 13830 ft | 333 kts | 71° |
| 2026-05-07 13:47 | 49.95024 | 7.74032 | 13423 ft | 353 kts | 71° |
| 2026-05-07 13:47 | 49.95796 | 7.77754 | 13012 ft | 370 kts | 71° |
| 2026-05-07 13:47 | 49.96576 | 7.81527 | 12628 ft | 366 kts | 71° |
| 2026-05-07 13:47 | 49.97348 | 7.85289 | 12241 ft | 364 kts | 71° |
| 2026-05-07 13:48 | 49.98115 | 7.89015 | 11852 ft | 362 kts | 71° |
| 2026-05-07 13:48 | 49.98914 | 7.92717 | 11475 ft | 359 kts | 69° |
| 2026-05-07 13:48 | 49.99762 | 7.96352 | 11140 ft | 357 kts | 68° |
| 2026-05-07 13:48 | 50.00643 | 7.99966 | 11016 ft | 357 kts | 68° |
| 2026-05-07 13:49 | 50.01536 | 8.03571 | 10884 ft | 357 kts | 68° |
| 2026-05-07 13:49 | 50.02425 | 8.07166 | 10771 ft | 356 kts | 68° |
| 2026-05-07 13:49 | 50.03304 | 8.10764 | 10648 ft | 355 kts | 68° |
| 2026-05-07 13:49 | 50.04173 | 8.14363 | 10524 ft | 355 kts | 68° |
| 2026-05-07 13:50 | 50.05032 | 8.17944 | 10403 ft | 354 kts | 68° |
| 2026-05-07 13:50 | 50.05889 | 8.21536 | 10284 ft | 354 kts | 68° |
| 2026-05-07 13:50 | 50.06744 | 8.25129 | 10146 ft | 353 kts | 68° |
| 2026-05-07 13:50 | 50.07605 | 8.28764 | 10029 ft | 351 kts | 68° |
| 2026-05-07 13:51 | 50.08449 | 8.32334 | 10051 ft | 352 kts | 68° |
| 2026-05-07 13:51 | 50.09298 | 8.35912 | 10054 ft | 352 kts | 68° |
| 2026-05-07 13:51 | 50.10149 | 8.39486 | 10054 ft | 352 kts | 68° |
| 2026-05-07 13:51 | 50.11004 | 8.43049 | 10052 ft | 352 kts | 68° |
| 2026-05-07 13:52 | 50.11859 | 8.46613 | 10055 ft | 349 kts | 68° |
| 2026-05-07 13:52 | 50.12685 | 8.50060 | 10050 ft | 329 kts | 68° |
| 2026-05-07 13:52 | 50.13459 | 8.53295 | 10053 ft | 309 kts | 68° |
| 2026-05-07 13:52 | 50.14189 | 8.56352 | 10054 ft | 296 kts | 68° |
| 2026-05-07 13:53 | 50.14902 | 8.59348 | 10056 ft | 294 kts | 68° |
| 2026-05-07 13:53 | 50.15614 | 8.62332 | 10057 ft | 294 kts | 68° |
| 2026-05-07 13:53 | 50.16327 | 8.65317 | 10054 ft | 294 kts | 68° |
| 2026-05-07 13:53 | 50.17038 | 8.68302 | 10055 ft | 294 kts | 68° |
| 2026-05-07 13:54 | 50.17744 | 8.71285 | 10054 ft | 292 kts | 68° |
| 2026-05-07 13:54 | 50.18424 | 8.74169 | 10050 ft | 276 kts | 68° |
| 2026-05-07 13:54 | 50.19070 | 8.76910 | 10032 ft | 261 kts | 68° |
| 2026-05-07 13:54 | 50.19688 | 8.79531 | 9664 ft | 256 kts | 68° |
| 2026-05-07 13:55 | 50.20303 | 8.82136 | 9166 ft | 255 kts | 68° |
| 2026-05-07 13:55 | 50.20913 | 8.84723 | 8693 ft | 254 kts | 68° |
| 2026-05-07 13:55 | 50.21522 | 8.87298 | 8225 ft | 252 kts | 68° |
| 2026-05-07 13:55 | 50.22124 | 8.89857 | 7791 ft | 249 kts | 68° |
| 2026-05-07 13:56 | 50.22717 | 8.92383 | 7335 ft | 248 kts | 68° |
| 2026-05-07 13:56 | 50.23308 | 8.94910 | 6875 ft | 246 kts | 68° |
| 2026-05-07 13:56 | 50.23665 | 8.97537 | 6466 ft | 246 kts | 93° |
| 2026-05-07 13:56 | 50.23152 | 9.00042 | 6126 ft | 245 kts | 125° |
| 2026-05-07 13:57 | 50.21910 | 9.01757 | 5765 ft | 242 kts | 157° |
| 2026-05-07 13:57 | 50.20268 | 9.02216 | 5383 ft | 237 kts | 190° |
| 2026-05-07 13:57 | 50.18814 | 9.01273 | 5265 ft | 220 kts | 218° |
| 2026-05-07 13:57 | 50.17661 | 8.99830 | 5139 ft | 205 kts | 223° |
| 2026-05-07 13:58 | 50.16630 | 8.98423 | 5011 ft | 189 kts | 224° |
| 2026-05-07 13:58 | 50.15668 | 8.97108 | 4795 ft | 181 kts | 224° |
| 2026-05-07 13:58 | 50.14723 | 8.95828 | 4566 ft | 180 kts | 225° |
| 2026-05-07 13:58 | 50.13774 | 8.94553 | 4411 ft | 180 kts | 223° |
| 2026-05-07 13:59 | 50.12826 | 8.93269 | 4283 ft | 181 kts | 224° |
| 2026-05-07 13:59 | 50.12011 | 8.91823 | 4146 ft | 176 kts | 246° |
| 2026-05-07 13:59 | 50.11539 | 8.90066 | 4058 ft | 176 kts | 249° |
| 2026-05-07 13:59 | 50.11062 | 8.88318 | 3998 ft | 175 kts | 251° |
| 2026-05-07 14:00 | 50.10618 | 8.86547 | 3999 ft | 176 kts | 252° |
| 2026-05-07 14:00 | 50.10187 | 8.84756 | 3877 ft | 176 kts | 252° |
| 2026-05-07 14:00 | 50.09765 | 8.82979 | 3664 ft | 175 kts | 253° |
| 2026-05-07 14:00 | 50.09344 | 8.81194 | 3463 ft | 175 kts | 252° |
| 2026-05-07 14:01 | 50.08924 | 8.79417 | 3223 ft | 175 kts | 252° |
| 2026-05-07 14:01 | 50.08505 | 8.77639 | 2985 ft | 175 kts | 252° |
| 2026-05-07 14:01 | 50.08086 | 8.75867 | 2752 ft | 174 kts | 252° |
| 2026-05-07 14:01 | 50.07668 | 8.74098 | 2513 ft | 174 kts | 252° |
| 2026-05-07 14:02 | 50.07250 | 8.72332 | 2272 ft | 174 kts | 252° |
| 2026-05-07 14:02 | 50.06845 | 8.70626 | 2047 ft | 160 kts | 252° |
| 2026-05-07 14:02 | 50.06467 | 8.69031 | 1827 ft | 155 kts | 252° |
| 2026-05-07 14:02 | 50.06100 | 8.67479 | 1616 ft | 152 kts | 252° |
| 2026-05-07 14:03 | 50.05741 | 8.65968 | 1409 ft | 146 kts | 252° |
| 2026-05-07 14:03 | 50.05395 | 8.64510 | 1208 ft | 141 kts | 252° |
| 2026-05-07 14:03 | 50.05058 | 8.63091 | 1011 ft | 138 kts | 251° |
| 2026-05-07 14:03 | 50.04730 | 8.61701 | 830 ft | 137 kts | 251° |
| 2026-05-07 14:04 | 50.04401 | 8.60316 | 643 ft | 136 kts | 250° |
| 2026-05-07 14:04 | 50.04074 | 8.58941 | 457 ft | 136 kts | 250° |
| 2026-05-07 14:04 | 50.03755 | 8.57603 | 360 ft | 121 kts | 250° |
| 2026-05-07 14:04 | 50.03521 | 8.56624 | 351 ft | 72 kts | 250° |
| 2026-05-07 14:05 | 50.03383 | 8.56047 | 354 ft | 47 kts | 249° |
| 2026-05-07 14:05 | 50.03312 | 8.55710 | 348 ft | 24 kts | 261° |
| 2026-05-07 14:05 | 50.03315 | 8.55501 | 346 ft | 15 kts | 277° |
| 2026-05-07 14:05 | 50.03332 | 8.55334 | 343 ft | 13 kts | 279° |
| 2026-05-07 14:06 | 50.03345 | 8.55220 | 342 ft | 11 kts | 280° |
| 2026-05-07 14:06 | 50.03359 | 8.55087 | 345 ft | 13 kts | 279° |
| 2026-05-07 14:06 | 50.03362 | 8.54935 | 344 ft | 15 kts | 258° |
| 2026-05-07 14:06 | 50.03322 | 8.54762 | 339 ft | 19 kts | 249° |
| 2026-05-07 14:07 | 50.03282 | 8.54591 | 336 ft | 11 kts | 250° |
| 2026-05-07 14:07 | 50.03302 | 8.54487 | 339 ft | 12 kts | 333° |
| 2026-05-07 14:07 | 50.03369 | 8.54448 | 339 ft | 7 kts | 339° |
| 2026-05-07 14:07 | 50.03402 | 8.54429 | 340 ft | 7 kts | 340° |
| 2026-05-07 14:08 | 50.03464 | 8.54393 | 351 ft | 12 kts | 340° |
| 2026-05-07 14:08 | 50.03547 | 8.54345 | 345 ft | 15 kts | 340° |
| 2026-05-07 14:08 | 50.03626 | 8.54308 | 348 ft | 10 kts | 0° |
| 2026-05-07 14:08 | 50.03675 | 8.54389 | 347 ft | 13 kts | 69° |
| 2026-05-07 14:09 | 50.03713 | 8.54547 | 348 ft | 18 kts | 70° |
| 2026-05-07 14:09 | 50.03762 | 8.54752 | 348 ft | 23 kts | 70° |
| 2026-05-07 14:09 | 50.03821 | 8.54996 | 356 ft | 25 kts | 70° |
| 2026-05-07 14:09 | 50.03881 | 8.55251 | 357 ft | 26 kts | 70° |
| 2026-05-07 14:10 | 50.03945 | 8.55516 | 356 ft | 27 kts | 69° |
| 2026-05-07 14:10 | 50.04011 | 8.55796 | 359 ft | 28 kts | 70° |
| 2026-05-07 14:10 | 50.04080 | 8.56081 | 358 ft | 28 kts | 69° |
| 2026-05-07 14:10 | 50.04127 | 8.56277 | 359 ft | 29 kts | 70° |
| 2026-05-07 14:11 | 50.04184 | 8.56518 | 361 ft | 20 kts | 70° |
| 2026-05-07 14:11 | 50.04215 | 8.56647 | 360 ft | 4 kts | 70° |
| 2026-05-07 14:11 | 50.04218 | 8.56659 | 364 ft | 0 kts | 70° |
| 2026-05-07 14:12 | 50.04227 | 8.56698 | 364 ft | 7 kts | 70° |
| 2026-05-07 14:13 | 50.04256 | 8.56787 | 362 ft | 10 kts | 43° |
| 2026-05-07 14:13 | 50.04324 | 8.56820 | 360 ft | 11 kts | 12° |
| 2026-05-07 14:13 | 50.04413 | 8.56846 | 364 ft | 16 kts | 8° |
| 2026-05-07 14:13 | 50.04528 | 8.56882 | 359 ft | 18 kts | 13° |
| 2026-05-07 14:14 | 50.04633 | 8.56923 | 356 ft | 14 kts | 18° |
| 2026-05-07 14:14 | 50.04728 | 8.56987 | 359 ft | 16 kts | 24° |
| 2026-05-07 14:14 | 50.04821 | 8.57053 | 359 ft | 10 kts | 25° |
| 2026-05-07 14:14 | 50.04862 | 8.57081 | 358 ft | 6 kts | 16° |
| 2026-05-07 14:15 | 50.04905 | 8.57068 | 360 ft | 4 kts | 340° |
| 2026-05-07 14:15 | 50.04922 | 8.57072 | 361 ft | 1 kts | 65° |
| 2026-05-07 14:15 | 50.04920 | 8.57080 | 360 ft | 0 kts | 102° |
| 2026-05-07 14:15 | 50.04919 | 8.57083 | 361 ft | 0 kts | 99° |